Hlavní strana
METAR-TAF:

METAR-TAF

Letiště :

Nairobi, Keňa

zeměpisná šířka: 01-19S, zeměpisná délka: 036-55E, výška: 1624 m

Aktuální stav počasí

Zpráva byla vytvořena před 26 minutami, v 08:30 UTC
Jihozápadní vítr 7 kt
Teplota 19°C
Vlhkost vzduchu 56%
Tlak 1026 hPa
Viditelnost 10 km a více
Oblačno až skoro zataženo ve výšce 2200 ft

METAR: HKJK 160830Z 22007KT 9999 BKN022 19/10 Q1026

Čas: 11:56 (08:56 UTC)

Předpověď počasí

Zpráva byla vytvořena před 3 hodinami a 56 minutami, v 05:00 UTC
Předpověď platná od 16 v 06 UTC do 17 v 12 UTC
Jihojihozápadní vítr 5 kt
Viditelnost 10 km a více
Oblačno až skoro zataženo ve výšce 1700 ft
Změna
od 16 v 08 UTC do 16 v 11 UTC
Jihovýchodní vítr 10 kt
Oblačno až skoro zataženo ve výšce 2400 ft
Změna
od 16 v 20 UTC do 16 v 23 UTC
Jihojihozápadní vítr 5 kt
Oblačno až skoro zataženo ve výšce 2000 ft

TAF: HKJK 160500Z 1606/1712 21005KT 9999 BKN017 BECMG 1608/1611 14010KT BKN024 BECMG 1620/1623 20005KT BKN020

Stav a předpovědi počasí z více než 4 000 letišť (zprávy METAR a TAF).

Červené a žluté tečky na mapě představují dostupné meteorologické stanice.

Když kurzor umístíte na tečku, zobrazí se název stanice.

Pak kliknutím zobrazíte stav a předpověď počasí.

Chcete-li změnit mapu, kliknutím na zelené tlačítko se znaménkem +mapu přiblížíte, kliknutím na zelené tlačítko se znaménkem – mapu oddálíte a kliknutím na zelené šipky přejdete na sousední mapy.


METAR-TAF: